createdAt,value
2019-02-20T16:33:41.396Z,28.00
2019-02-20T16:36:08.187Z,28.20
2019-02-20T16:38:34.966Z,28.10
2019-02-20T16:41:01.738Z,28.10
2019-02-20T16:43:28.395Z,28.50
2019-02-20T16:45:55.269Z,28.10
2019-02-20T16:48:22.132Z,28.10
2019-02-20T16:50:48.875Z,28.00
2019-02-20T16:53:15.627Z,28.00
2019-02-20T16:55:42.332Z,28.00
2019-02-20T16:58:09.080Z,27.90
2019-02-20T17:00:36.257Z,27.90
2019-02-20T17:03:05.158Z,27.80
2019-02-20T17:05:31.710Z,27.80
2019-02-20T17:07:59.167Z,27.80
2019-02-20T17:10:25.866Z,27.80
2019-02-20T17:12:52.793Z,27.70
2019-02-20T17:15:19.506Z,27.70
2019-02-20T17:17:46.658Z,27.70
2019-02-20T17:20:17.709Z,27.70
2019-02-20T17:22:44.696Z,27.80
2019-02-20T17:25:14.099Z,27.80
2019-02-20T17:27:41.454Z,27.80
2019-02-20T17:30:13.717Z,27.70
2019-02-20T17:32:40.834Z,27.60
2019-02-20T17:35:09.133Z,27.60
2019-02-20T17:37:35.880Z,27.70
2019-02-20T17:40:04.081Z,27.60
2019-02-20T17:42:31.159Z,27.70
2019-02-20T17:44:57.860Z,27.70
2019-02-20T17:47:25.941Z,28.10
2019-02-20T17:49:52.689Z,27.70
2019-02-20T17:52:19.919Z,27.60
2019-02-20T17:54:47.063Z,27.70
2019-02-20T17:57:15.032Z,27.70
2019-02-20T17:59:41.689Z,27.60
2019-02-20T18:02:08.432Z,27.60
2019-02-20T18:04:35.995Z,27.70
2019-02-20T18:07:02.848Z,28.10
2019-02-20T18:09:29.751Z,27.70
2019-02-20T18:11:56.707Z,27.70
2019-02-20T18:14:23.448Z,27.80
2019-02-20T18:16:50.732Z,27.80
2019-02-20T18:19:17.441Z,27.80
2019-02-20T18:21:44.593Z,28.30
2019-02-20T18:24:11.338Z,27.80
2019-02-20T18:26:38.058Z,27.90
2019-02-20T18:29:05.174Z,27.80
2019-02-20T18:31:32.161Z,27.90
2019-02-20T18:33:59.681Z,27.80
2019-02-20T18:36:26.793Z,27.80
2019-02-20T18:38:54.007Z,27.80
2019-02-20T18:41:20.908Z,27.80
2019-02-20T18:43:48.135Z,27.90
2019-02-20T18:46:14.875Z,27.90
2019-02-20T18:48:41.942Z,27.90
2019-02-20T18:51:08.627Z,28.00
2019-02-20T18:53:35.754Z,28.20
2019-02-20T18:56:02.675Z,28.20
2019-02-20T18:58:33.915Z,28.30
2019-02-20T19:00:57.932Z,28.30
2019-02-20T19:03:24.652Z,28.30
2019-02-20T19:05:51.349Z,28.40
2019-02-20T19:08:42.973Z,28.50
2019-02-20T19:11:13.522Z,28.60
2019-02-20T19:13:49.838Z,28.60
2019-02-20T19:16:49.223Z,28.60
2019-02-20T19:19:20.537Z,28.60
2019-02-20T19:22:03.288Z,28.60
2019-02-20T19:24:46.211Z,28.90
2019-02-20T19:27:16.851Z,28.70
2019-02-20T19:30:03.094Z,28.70
2019-02-20T19:32:48.619Z,28.80
2019-02-20T19:35:24.950Z,29.00
2019-02-20T19:38:14.128Z,29.10
2019-02-20T19:40:47.684Z,29.20
2019-02-20T19:43:27.301Z,29.20
2019-02-20T19:46:30.207Z,29.40
2019-02-20T19:49:06.129Z,29.50
2019-02-20T19:51:37.292Z,29.70
2019-02-20T19:54:15.012Z,29.70
2019-02-20T19:56:45.553Z,29.70
2019-02-20T19:59:19.014Z,29.80
2019-02-20T20:01:58.843Z,29.80
2019-02-20T20:05:04.897Z,30.00
2019-02-20T20:08:09.518Z,30.00
2019-02-20T20:10:55.468Z,30.00
2019-02-20T20:13:30.204Z,30.20
2019-02-20T20:16:18.268Z,30.30
2019-02-20T20:18:48.794Z,30.40
2019-02-20T20:21:25.134Z,30.50
2019-02-20T20:24:04.540Z,30.60
2019-02-20T20:26:40.816Z,30.70
2019-02-20T20:29:27.140Z,30.70
2019-02-20T20:32:06.700Z,30.80
2019-02-20T20:34:42.800Z,31.00
2019-02-20T20:37:25.712Z,31.00
2019-02-20T20:39:58.999Z,31.10
2019-02-20T20:42:52.557Z,31.20
2019-02-20T20:45:29.220Z,31.30
2019-02-20T20:48:14.965Z,31.40
2019-02-20T20:51:02.614Z,31.40
2019-02-20T20:53:39.228Z,31.50
2019-02-20T20:56:29.475Z,31.50
2019-02-20T20:59:02.816Z,31.60
2019-02-20T21:01:49.116Z,31.60
2019-02-20T21:04:31.715Z,31.80
2019-02-20T21:07:26.827Z,31.80
2019-02-20T21:09:57.398Z,31.80
2019-02-20T21:12:46.365Z,31.90
2019-02-20T21:15:29.744Z,32.00
2019-02-20T21:18:15.155Z,32.00
2019-02-20T21:20:58.274Z,32.10
2019-02-20T21:23:35.054Z,32.20
2019-02-20T21:26:09.074Z,32.20
2019-02-20T21:28:53.928Z,32.20
2019-02-20T21:31:35.337Z,32.30
2019-02-20T21:34:24.323Z,32.30
2019-02-20T21:36:54.944Z,32.40
2019-02-20T21:39:31.235Z,32.40
2019-02-20T21:42:10.815Z,32.50
2019-02-20T21:44:53.649Z,32.50
2019-02-20T21:47:36.243Z,32.50
2019-02-20T21:50:43.439Z,32.60
2019-02-20T21:53:20.072Z,32.60
2019-02-20T21:56:05.287Z,32.60
2019-02-20T21:58:39.698Z,32.70
2019-02-20T22:01:13.284Z,32.70
2019-02-20T22:04:02.263Z,32.70
2019-02-20T22:06:33.248Z,32.80
2019-02-20T22:09:07.817Z,32.80
2019-02-20T22:12:02.867Z,32.90
2019-02-20T22:14:33.501Z,32.80
2019-02-20T22:17:16.608Z,32.90
2019-02-20T22:20:21.014Z,32.90
2019-02-20T22:23:00.545Z,32.90
2019-02-20T22:25:52.811Z,32.90
2019-02-20T22:28:38.014Z,32.90
2019-02-20T22:31:20.935Z,32.90
2019-02-20T22:34:11.175Z,32.80
2019-02-20T22:36:44.707Z,32.80
2019-02-20T22:39:32.097Z,32.90
2019-02-20T22:42:08.540Z,32.80
2019-02-20T22:44:45.319Z,32.80
2019-02-20T22:47:21.787Z,32.70
2019-02-20T22:50:08.949Z,32.80
2019-02-20T22:52:39.571Z,32.70
2019-02-20T22:55:20.351Z,33.30
2019-02-20T22:58:06.288Z,32.60
2019-02-20T23:01:03.087Z,32.60
2019-02-20T23:03:46.047Z,32.60
2019-02-20T23:06:22.531Z,32.60
2019-02-20T23:08:59.557Z,32.60
2019-02-20T23:11:47.064Z,32.60
2019-02-20T23:14:27.111Z,32.60
2019-02-20T23:16:53.959Z,32.60
2019-02-20T23:19:20.920Z,32.60
2019-02-20T23:21:49.458Z,32.50
2019-02-20T23:24:16.620Z,32.60
2019-02-20T23:26:43.531Z,32.50
2019-02-20T23:29:10.279Z,32.50
2019-02-20T23:31:37.524Z,32.60
2019-02-20T23:34:05.354Z,32.60
2019-02-20T23:36:33.151Z,32.60
2019-02-20T23:39:00.086Z,32.60
2019-02-20T23:41:26.847Z,32.60
2019-02-20T23:43:53.643Z,32.60
2019-02-20T23:46:20.559Z,32.60
2019-02-20T23:48:47.831Z,32.60
2019-02-20T23:51:14.974Z,32.60
2019-02-20T23:53:42.550Z,32.50
2019-02-20T23:56:09.461Z,33.10
2019-02-20T23:58:36.248Z,32.50
